Time;durP1;ratioP1;P1;durP2;ratioP2;P2;SDS_P1;SDS_P2;PMS_P1;PMS_P2;Temp;Humidity;BMP_temperature;BMP_pressure;BME280_temperature;BME280_humidity;BME280_pressure;Samples;Min_cycle;Max_cycle;Signal;HPM_P1;HPM_P2
2023/07/19 00:00:12;;;;;;;71.82;35.55;;;;;;;22.30;100.00;92720.84;4808620;29;20047;-78
2023/07/19 00:02:43;;;;;;;70.75;37.00;;;;;;;22.29;100.00;92727.28;4807848;29;20039;-78
2023/07/19 00:05:09;;;;;;;62.85;35.90;;;;;;;22.27;100.00;92721.53;4806495;29;20047;-79
2023/07/19 00:07:35;;;;;;;69.95;35.67;;;;;;;22.25;100.00;92713.91;4807252;29;20038;-78
2023/07/19 00:10:01;;;;;;;76.55;35.92;;;;;;;22.27;100.00;92718.84;4806824;29;20058;-78
2023/07/19 00:12:26;;;;;;;72.43;34.45;;;;;;;22.30;100.00;92726.94;4807741;29;20034;-78
2023/07/19 00:14:52;;;;;;;72.30;34.83;;;;;;;22.29;100.00;92727.28;4807106;29;20050;-78
2023/07/19 00:17:18;;;;;;;64.05;34.75;;;;;;;22.38;100.00;92730.47;4806902;29;20085;-78
2023/07/19 00:19:43;;;;;;;68.43;35.85;;;;;;;22.34;100.00;92740.34;4806536;29;20046;-78
2023/07/19 00:22:09;;;;;;;70.40;35.72;;;;;;;22.29;100.00;92729.94;4805353;29;20038;-78
2023/07/19 00:24:34;;;;;;;71.63;36.47;;;;;;;22.29;100.00;92695.28;4807598;29;20042;-78
2023/07/19 00:27:00;;;;;;;70.43;36.88;;;;;;;22.30;100.00;92734.94;4805068;29;20541;-78
2023/07/19 00:29:26;;;;;;;76.57;36.80;;;;;;;22.34;100.00;92764.34;4804022;29;20030;-78
2023/07/19 00:31:52;;;;;;;71.82;36.22;;;;;;;22.36;100.00;92762.84;4806167;29;20082;-78
2023/07/19 00:34:17;;;;;;;74.15;37.33;;;;;;;22.36;100.00;92754.84;4805915;29;20070;-78
2023/07/19 00:36:43;;;;;;;74.35;35.13;;;;;;;22.37;100.00;92707.63;4807352;29;20043;-80
2023/07/19 00:39:09;;;;;;;76.35;38.33;;;;;;;22.39;100.00;92695.47;4809473;29;20063;-79
2023/07/19 00:41:35;;;;;;;73.93;37.00;;;;;;;22.42;100.00;92699.31;4806914;29;20095;-77
2023/07/19 00:44:03;;;;;;;78.10;36.25;;;;;;;22.49;100.00;92683.44;4805347;29;20073;-77
2023/07/19 00:46:29;;;;;;;76.55;35.95;;;;;;;22.41;100.00;92692.47;4806662;29;20074;-78
2023/07/19 00:48:56;;;;;;;80.60;37.75;;;;;;;22.36;100.00;92687.41;4806895;29;20050;-78
2023/07/19 00:51:21;;;;;;;77.32;38.47;;;;;;;22.32;100.00;92682.03;4805105;29;20468;-78
2023/07/19 00:53:48;;;;;;;74.15;37.58;;;;;;;22.29;100.00;92679.28;4805167;29;20039;-77
2023/07/19 00:56:16;;;;;;;78.30;37.28;;;;;;;22.27;100.00;92681.53;4802362;29;20031;-77
2023/07/19 00:58:43;;;;;;;79.00;37.35;;;;;;;22.22;100.00;92675.38;4806479;29;20043;-79
2023/07/19 01:01:09;;;;;;;75.63;38.13;;;;;;;22.24;100.00;92673.09;4807790;29;20054;-79
2023/07/19 01:03:35;;;;;;;81.82;37.15;;;;;;;22.14;100.00;92679.00;4814948;29;20061;-80
2023/07/19 01:06:03;;;;;;;84.13;38.38;;;;;;;22.05;100.00;92675.78;4809969;29;20050;-79
2023/07/19 01:08:29;;;;;;;87.15;39.05;;;;;;;21.97;100.00;92668.78;4826193;29;20367;-80
2023/07/19 01:10:55;;;;;;;75.95;37.55;;;;;;;21.92;100.00;92669.06;4806731;29;20121;-79
2023/07/19 01:13:21;;;;;;;84.80;39.20;;;;;;;21.90;100.00;92668.66;4812710;29;20133;-79
2023/07/19 01:15:47;;;;;;;91.60;41.60;;;;;;;21.87;100.00;92682.69;4811053;29;20109;-79
2023/07/19 01:18:15;;;;;;;81.72;37.75;;;;;;;21.84;100.00;92681.47;4808823;29;20099;-80
2023/07/19 01:20:40;;;;;;;86.97;38.65;;;;;;;21.82;100.00;92673.84;4808145;29;20045;-79
2023/07/19 01:23:06;;;;;;;85.40;40.58;;;;;;;21.83;100.00;92659.38;4806926;29;20068;-80
2023/07/19 01:25:32;;;;;;;93.35;38.65;;;;;;;21.87;100.00;92653.38;4808648;29;20045;-80
2023/07/19 01:27:57;;;;;;;86.15;40.65;;;;;;;21.89;100.00;92656.47;4809630;29;20038;-80
2023/07/19 01:30:23;;;;;;;77.72;37.60;;;;;;;21.92;100.00;92656.50;4808378;29;20047;-79
2023/07/19 01:32:49;;;;;;;89.75;39.95;;;;;;;21.95;100.00;92647.84;4804598;29;20096;-79
2023/07/19 01:35:15;;;;;;;90.97;40.22;;;;;;;21.97;100.00;92634.13;4806943;29;20043;-79
2023/07/19 01:37:41;;;;;;;75.07;37.65;;;;;;;21.97;100.00;92626.13;4790212;29;20059;-80
2023/07/19 01:40:09;;;;;;;91.10;39.65;;;;;;;21.94;100.00;92629.53;4793758;29;20058;-79
2023/07/19 01:42:34;;;;;;;92.03;40.22;;;;;;;21.96;100.00;92638.69;4802697;29;20042;-79
2023/07/19 01:45:01;;;;;;;94.65;40.72;;;;;;;21.92;100.00;92634.44;4777411;29;20042;-80
2023/07/19 01:47:27;;;;;;;86.10;39.67;;;;;;;21.91;100.00;92631.00;4807586;29;20145;-80
2023/07/19 01:49:53;;;;;;;82.72;40.20;;;;;;;21.90;100.00;92631.34;4806729;29;20073;-79
2023/07/19 01:52:18;;;;;;;80.38;39.30;;;;;;;21.89;100.00;92637.81;4808262;29;20096;-79
2023/07/19 01:54:44;;;;;;;96.38;40.88;;;;;;;21.88;100.00;92633.59;4806140;29;20039;-79
2023/07/19 01:57:10;;;;;;;85.55;41.08;;;;;;;21.88;100.00;92628.25;4807279;29;20046;-80
2023/07/19 01:59:36;;;;;;;84.50;39.00;;;;;;;21.88;100.00;92633.59;4790935;29;20026;-79
2023/07/19 02:02:02;;;;;;;83.35;39.42;;;;;;;21.88;100.00;92633.59;4808514;29;20068;-79
2023/07/19 02:04:28;;;;;;;85.25;40.03;;;;;;;21.87;100.00;92632.81;4807801;29;20050;-80
2023/07/19 02:06:54;;;;;;;89.80;39.53;;;;;;;21.87;100.00;92632.06;4808526;29;20055;-80
2023/07/19 02:09:19;;;;;;;84.43;38.60;;;;;;;21.87;100.00;92624.06;4807689;29;20041;-80
2023/07/19 02:11:45;;;;;;;86.95;38.90;;;;;;;21.92;100.00;92619.22;4807556;29;20051;-80
2023/07/19 02:14:11;;;;;;;83.40;37.47;;;;;;;21.89;100.00;92621.81;4807730;29;20070;-80
2023/07/19 02:16:37;;;;;;;85.53;39.53;;;;;;;21.87;100.00;92624.06;4807320;29;20050;-80
2023/07/19 02:19:06;;;;;;;82.93;38.58;;;;;;;21.82;100.00;92620.56;4808300;29;20045;-80
2023/07/19 02:21:33;;;;;;;74.82;37.72;;;;;;;21.82;100.00;92631.22;4804911;29;20038;-79
2023/07/19 02:23:58;;;;;;;91.55;39.58;;;;;;;21.82;100.00;92631.22;4805613;29;20426;-80
2023/07/19 02:26:24;;;;;;;88.05;38.45;;;;;;;21.83;100.00;92627.41;4791385;29;20042;-79
2023/07/19 02:28:50;;;;;;;78.55;37.80;;;;;;;21.84;100.00;92622.84;4806823;29;20084;-80
2023/07/19 02:31:16;;;;;;;84.82;37.22;;;;;;;21.85;100.00;92615.66;4806283;29;20502;-80
2023/07/19 02:33:41;;;;;;;85.18;36.70;;;;;;;21.86;100.00;92619.84;4808907;29;20035;-79
2023/07/19 02:36:10;;;;;;;88.85;39.28;;;;;;;21.89;100.00;92627.91;4807573;29;20494;-79
2023/07/19 02:38:36;;;;;;;88.93;38.05;;;;;;;21.90;100.00;92629.44;4807256;29;20046;-79
2023/07/19 02:41:02;;;;;;;79.70;40.22;;;;;;;21.93;100.00;92633.28;4807660;29;20405;-80
2023/07/19 02:43:28;;;;;;;88.88;40.28;;;;;;;21.92;100.00;92634.44;4789051;29;20039;-79
2023/07/19 02:45:54;;;;;;;76.53;39.10;;;;;;;21.93;100.00;92630.63;4807606;29;20046;-80
2023/07/19 02:48:21;;;;;;;87.40;38.47;;;;;;;21.90;100.00;92626.00;4809937;29;20047;-80
2023/07/19 02:50:48;;;;;;;95.43;41.15;;;;;;;21.93;100.00;92630.63;4811047;29;20512;-79
2023/07/19 02:53:14;;;;;;;84.55;38.88;;;;;;;21.92;100.00;92618.44;4806647;29;20042;-80
2023/07/19 02:55:43;;;;;;;104.75;41.28;;;;;;;21.92;100.00;92619.22;4809588;29;20135;-79
2023/07/19 02:58:08;;;;;;;100.22;42.55;;;;;;;21.92;100.00;92615.78;4809976;29;20045;-79
2023/07/19 03:00:38;;;;;;;101.25;42.17;;;;;;;21.90;100.00;92612.69;4809300;29;20038;-79
2023/07/19 03:03:03;;;;;;;99.88;40.65;;;;;;;21.88;100.00;92606.94;4808810;29;20042;-79
2023/07/19 03:05:29;;;;;;;105.60;42.85;;;;;;;21.88;100.00;92617.59;4810847;29;20151;-78
2023/07/19 03:07:55;;;;;;;99.43;41.90;;;;;;;21.87;100.00;92619.50;4776912;29;20030;-78
2023/07/19 03:10:20;;;;;;;89.85;42.38;;;;;;;21.85;100.00;92613.00;4791695;29;20074;-79
2023/07/19 03:12:46;;;;;;;97.93;44.00;;;;;;;21.84;100.00;92620.19;4791706;29;20476;-79
2023/07/19 03:15:12;;;;;;;105.00;45.60;;;;;;;21.84;100.00;92620.19;4805593;29;20050;-78
2023/07/19 03:17:39;;;;;;;114.60;44.03;;;;;;;21.83;100.00;92621.31;4807778;29;20440;-78
2023/07/19 03:20:06;;;;;;;115.97;45.75;;;;;;;21.83;100.00;92618.66;4806492;29;20043;-78
2023/07/19 03:22:32;;;;;;;97.95;44.30;;;;;;;21.81;100.00;92612.91;4807644;29;20078;-78
2023/07/19 03:24:57;;;;;;;107.10;44.45;;;;;;;21.78;100.00;92609.06;4807189;29;20070;-79
2023/07/19 03:27:23;;;;;;;92.70;43.70;;;;;;;21.79;100.00;92615.91;4806172;29;20054;-78
2023/07/19 03:29:49;;;;;;;110.93;43.28;;;;;;;21.79;100.00;92609.81;4806827;29;20095;-79
2023/07/19 03:32:14;;;;;;;100.88;44.78;;;;;;;21.78;100.00;92603.72;4806362;29;20043;-78
2023/07/19 03:34:40;;;;;;;97.45;44.55;;;;;;;21.76;100.00;92602.56;4805695;29;20091;-79
2023/07/19 03:37:06;;;;;;;96.70;42.28;;;;;;;21.75;100.00;92596.47;4805270;29;20042;-79
2023/07/19 03:39:31;;;;;;;93.93;42.33;;;;;;;21.73;100.00;92584.59;4807607;29;20035;-78
2023/07/19 03:41:57;;;;;;;106.65;44.70;;;;;;;21.70;100.00;92586.06;4807806;29;20038;-78
2023/07/19 03:44:23;;;;;;;94.70;43.97;;;;;;;21.69;100.00;92581.88;4799131;29;20046;-78
2023/07/19 03:46:50;;;;;;;106.57;42.58;;;;;;;21.67;100.00;92586.78;4809705;29;20046;-79
2023/07/19 03:49:15;;;;;;;119.60;42.95;;;;;;;21.67;100.00;92591.34;4803202;29;20072;-78
2023/07/19 03:51:42;;;;;;;111.53;44.03;;;;;;;21.59;100.00;92585.91;4805703;29;20053;-78
2023/07/19 03:54:08;;;;;;;112.25;43.92;;;;;;;21.58;100.00;92586.22;4805710;29;20054;-78
2023/07/19 03:56:34;;;;;;;110.15;44.88;;;;;;;21.57;100.00;92592.66;4790867;29;20039;-79
2023/07/19 03:58:59;;;;;;;111.00;44.85;;;;;;;21.58;100.00;92589.66;4807344;29;20134;-80
2023/07/19 04:01:25;;;;;;;106.97;44.92;;;;;;;21.56;100.00;92578.59;4806830;29;20035;-79
2023/07/19 04:03:50;;;;;;;108.00;45.03;;;;;;;21.58;100.00;92576.34;4807686;29;20077;-79
2023/07/19 04:06:16;;;;;;;111.15;46.10;;;;;;;21.60;100.00;92576.00;4802499;29;20061;-79
2023/07/19 04:08:42;;;;;;;97.57;44.13;;;;;;;21.61;100.00;92577.53;4801412;29;20039;-79
2023/07/19 04:11:09;;;;;;;114.95;46.67;;;;;;;21.60;100.00;92568.00;4807301;29;20048;-80
2023/07/19 04:13:35;;;;;;;117.90;46.35;;;;;;;21.61;100.00;92561.53;4809530;29;20039;-81
2023/07/19 04:16:01;;;;;;;115.63;46.15;;;;;;;21.65;100.00;92565.06;4795213;29;20419;-80
2023/07/19 04:18:29;;;;;;;104.88;44.78;;;;;;;21.64;100.00;92560.88;4794015;29;20133;-82
2023/07/19 04:20:57;;;;;;;113.70;45.70;;;;;;;21.68;100.00;92576.91;4778022;29;20135;-80
2023/07/19 04:23:23;;;;;;;120.70;47.03;;;;;;;21.72;100.00;92575.84;4804992;29;20107;-81
2023/07/19 04:25:50;;;;;;;114.68;44.55;;;;;;;21.75;100.00;92583.13;4806520;29;20063;-78
2023/07/19 04:28:16;;;;;;;118.60;47.40;;;;;;;21.74;100.00;92576.25;4806754;29;20039;-79
2023/07/19 04:30:43;;;;;;;123.72;49.55;;;;;;;21.76;100.00;92567.91;4799624;29;20031;-79
2023/07/19 04:33:10;;;;;;;126.90;48.88;;;;;;;21.77;100.00;92561.44;4807228;29;20761;-79
2023/07/19 04:35:36;;;;;;;122.47;49.38;;;;;;;21.81;100.00;92559.63;4805583;29;20053;-78
2023/07/19 04:38:03;;;;;;;134.65;49.47;;;;;;;21.86;100.00;92559.31;4802912;29;20058;-78
2023/07/19 04:40:30;;;;;;;114.10;48.65;;;;;;;21.89;100.00;92550.66;4805579;29;20082;-78
2023/07/19 04:42:56;;;;;;;119.63;48.63;;;;;;;21.93;100.00;92556.00;4806481;29;20042;-78
2023/07/19 04:45:21;;;;;;;125.82;50.42;;;;;;;21.99;100.00;92565.25;4805395;29;20053;-78
2023/07/19 04:47:47;;;;;;;135.57;51.85;;;;;;;22.04;100.00;92572.94;4788302;29;20051;-78
2023/07/19 04:50:13;;;;;;;128.75;49.88;;;;;;;22.08;100.00;92573.78;4802938;29;20054;-77
2023/07/19 04:52:39;;;;;;;122.25;47.83;;;;;;;22.14;100.00;92571.63;4804666;29;20045;-79
2023/07/19 04:55:05;;;;;;;123.30;50.28;;;;;;;22.19;100.00;92568.63;4806361;29;20042;-78
2023/07/19 04:57:33;;;;;;;133.80;51.10;;;;;;;22.23;100.00;92554.28;4805291;29;20046;-78
2023/07/19 04:59:58;;;;;;;112.45;47.50;;;;;;;22.35;100.00;92547.22;4790221;29;20127;-77
2023/07/19 05:02:24;;;;;;;114.10;45.38;;;;;;;22.28;100.00;92536.44;4804616;29;20475;-77
2023/07/19 05:04:50;;;;;;;106.65;45.08;;;;;;;22.20;100.00;92543.50;4804338;29;20038;-78
2023/07/19 05:07:16;;;;;;;113.43;44.92;;;;;;;22.18;100.00;92551.88;4796376;29;20050;-78
2023/07/19 05:09:42;;;;;;;127.57;46.88;;;;;;;22.21;100.00;92559.19;4811160;29;20078;-78
2023/07/19 05:12:09;;;;;;;119.50;47.10;;;;;;;22.30;100.00;92571.50;4803949;29;20034;-78
2023/07/19 05:14:35;;;;;;;120.38;48.45;;;;;;;22.38;100.00;92581.16;4811129;29;20493;-78
2023/07/19 05:17:01;;;;;;;117.20;46.13;;;;;;;22.44;100.00;92582.41;4788759;29;20061;-78
2023/07/19 05:19:26;;;;;;;115.60;46.13;;;;;;;22.49;100.00;92579.41;4789919;29;20043;-78
2023/07/19 05:21:52;;;;;;;119.38;48.15;;;;;;;22.53;100.00;92572.25;4804002;29;20548;-77
2023/07/19 05:24:19;;;;;;;113.25;46.55;;;;;;;22.59;100.00;92570.81;4804022;29;20062;-77
2023/07/19 05:26:46;;;;;;;110.72;45.13;;;;;;;22.65;100.00;92566.72;4808285;29;20066;-77
2023/07/19 05:29:11;;;;;;;117.00;47.80;;;;;;;22.71;100.00;92561.06;4805110;29;20118;-78
2023/07/19 05:31:47;;;;;;;117.50;48.33;;;;;;;22.76;100.00;92564.19;4809995;29;20036;-78
2023/07/19 05:34:13;;;;;;;115.03;47.88;;;;;;;22.84;100.00;92565.06;4789273;29;20042;-79
2023/07/19 05:36:38;;;;;;;105.47;42.45;;;;;;;22.97;100.00;92568.28;4784791;29;20042;-79
2023/07/19 05:39:05;;;;;;;106.00;43.00;;;;;;;23.22;100.00;92577.41;4799033;29;20054;-79
2023/07/19 05:41:30;;;;;;;121.43;44.03;;;;;;;23.04;100.00;92587.09;4816602;29;20045;-80
2023/07/19 05:43:57;;;;;;;516.60;53.30;;;;;;;22.60;100.00;92583.00;4821548;29;20054;-79
2023/07/19 05:46:23;;;;;;;114.90;47.15;;;;;;;22.49;100.00;92579.41;4810408;29;20400;-80
2023/07/19 05:48:49;;;;;;;120.97;47.70;;;;;;;22.52;100.00;92584.06;4807745;29;20035;-79
2023/07/19 05:51:15;;;;;;;114.25;50.08;;;;;;;22.57;100.00;92585.66;4810264;29;20023;-80
2023/07/19 05:53:40;;;;;;;133.18;51.42;;;;;;;22.60;100.00;92588.34;4810982;29;20035;-81
2023/07/19 05:56:06;;;;;;;127.97;50.78;;;;;;;22.66;100.00;92589.59;4812361;29;20045;-80
2023/07/19 05:58:31;;;;;;;122.68;47.60;;;;;;;22.75;100.00;92596.59;4812530;29;20426;-80
2023/07/19 06:00:57;;;;;;;116.97;46.60;;;;;;;22.80;100.00;92598.94;4812632;29;20109;-80
2023/07/19 06:03:23;;;;;;;126.13;45.38;;;;;;;22.87;100.00;92607.78;4796413;29;20055;-81
2023/07/19 06:05:49;;;;;;;109.28;43.95;;;;;;;22.96;100.00;92609.44;4810610;29;20039;-78
2023/07/19 06:08:14;;;;;;;110.18;46.00;;;;;;;23.01;100.00;92619.84;4806171;29;20042;-78
2023/07/19 06:10:40;;;;;;;110.60;45.03;;;;;;;23.04;100.00;92630.56;4805192;29;20046;-78
2023/07/19 06:13:06;;;;;;;109.88;46.08;;;;;;;23.11;100.00;92645.16;4806419;29;20035;-79
2023/07/19 06:15:33;;;;;;;109.13;43.97;;;;;;;23.07;100.00;92663.78;4810279;29;20453;-78
2023/07/19 06:17:59;;;;;;;103.70;43.30;;;;;;;23.00;100.00;92664.44;4804426;29;20039;-78
2023/07/19 06:20:25;;;;;;;103.25;42.70;;;;;;;22.99;100.00;92668.25;4792344;29;20126;-78
2023/07/19 06:22:55;;;;;;;105.53;42.25;;;;;;;22.96;100.00;92674.28;4806869;29;20497;-78
2023/07/19 06:25:20;;;;;;;92.20;41.13;;;;;;;22.86;100.00;92675.66;4803407;29;20107;-77
2023/07/19 06:27:46;;;;;;;116.20;43.40;;;;;;;22.83;100.00;92686.28;4808293;29;20042;-78
2023/07/19 06:30:12;;;;;;;108.97;43.08;;;;;;;22.79;100.00;92685.47;4806505;29;20050;-77
2023/07/19 06:32:37;;;;;;;106.25;44.47;;;;;;;22.82;100.00;92695.41;4807487;29;20023;-78
2023/07/19 06:35:05;;;;;;;107.80;44.72;;;;;;;22.79;100.00;92696.13;4805906;29;20039;-77
2023/07/19 06:37:33;;;;;;;98.97;41.75;;;;;;;22.76;100.00;92699.50;4808576;29;20484;-78
2023/07/19 06:40:02;;;;;;;108.95;43.38;;;;;;;22.72;100.00;92675.44;4806993;29;20074;-78
2023/07/19 06:42:28;;;;;;;97.75;43.67;;;;;;;22.70;100.00;92663.56;4805156;29;20049;-77
2023/07/19 06:44:54;;;;;;;111.32;43.42;;;;;;;22.69;100.00;92675.38;4805562;29;20050;-79
2023/07/19 06:47:19;;;;;;;110.70;43.30;;;;;;;22.68;100.00;92690.63;4806385;29;20062;-78
2023/07/19 06:49:45;;;;;;;103.70;42.47;;;;;;;22.69;100.00;92683.38;4804897;29;20046;-78
2023/07/19 06:52:11;;;;;;;105.85;42.20;;;;;;;22.70;100.00;92679.56;4806762;29;20087;-78
2023/07/19 06:54:36;;;;;;;114.32;45.80;;;;;;;22.74;100.00;92667.06;4806513;29;20414;-77
2023/07/19 06:57:02;;;;;;;111.38;46.95;;;;;;;22.75;100.00;92665.97;4803841;29;20039;-76
2023/07/19 06:59:28;;;;;;;122.18;44.95;;;;;;;22.81;100.00;92672.53;4805938;29;20043;-76
2023/07/19 07:01:54;;;;;;;104.13;43.65;;;;;;;22.92;100.00;92654.78;4804621;29;20430;-76
2023/07/19 07:04:19;;;;;;;104.22;44.70;;;;;;;22.97;100.00;92659.81;4804042;29;20049;-76
2023/07/19 07:06:45;;;;;;;93.68;39.55;;;;;;;23.14;100.00;92647.09;4793692;29;20046;-77
2023/07/19 07:09:11;;;;;;;126.72;48.15;;;;;;;22.93;100.00;92639.53;4796950;29;20043;-76
2023/07/19 07:11:37;;;;;;;369.83;49.40;;;;;;;22.59;100.00;92602.81;4794632;29;20095;-80
2023/07/19 07:14:02;;;;;;;552.65;52.13;;;;;;;22.31;100.00;92549.03;4803149;29;20139;-76
2023/07/19 07:16:28;;;;;;;153.98;50.08;;;;;;;21.68;100.00;92495.09;4801455;29;21803;-76
2023/07/19 07:18:54;;;;;;;1924.28;78.65;;;;;;;21.71;100.00;92497.06;4817835;29;20100;-77
2023/07/19 07:21:20;;;;;;;1999.90;109.80;;;;;;;21.48;100.00;92469.63;4797751;29;20505;-77
2023/07/19 07:23:45;;;;;;;1574.97;73.18;;;;;;;21.37;100.00;92486.16;4799724;29;20052;-77
2023/07/19 07:26:11;;;;;;;106.40;48.85;;;;;;;21.39;100.00;92499.09;4794147;29;20078;-77
2023/07/19 07:28:37;;;;;;;118.90;49.50;;;;;;;21.50;100.00;92488.69;4800262;29;20111;-77
2023/07/19 07:31:08;;;;;;;108.13;44.15;;;;;;;21.74;100.00;92475.03;4801980;29;20455;-76
2023/07/19 07:33:35;;;;;;;100.32;40.10;;;;;;;21.97;100.00;92476.91;4794774;29;20164;-77
2023/07/19 07:36:01;;;;;;;70.70;34.10;;;;;;;22.24;100.00;92491.03;4797725;29;20049;-78
2023/07/19 07:38:27;;;;;;;59.72;29.23;;;;;;;22.33;100.00;92488.13;4796357;29;20047;-80
2023/07/19 07:41:01;;;;;;;55.97;25.95;;;;;;;22.31;100.00;92479.72;4801979;29;20050;-78
2023/07/19 07:43:28;;;;;;;57.67;26.30;;;;;;;22.35;100.00;92481.31;4796997;29;20309;-78
2023/07/19 07:45:55;;;;;;;62.22;26.70;;;;;;;22.60;100.00;92470.97;4800245;29;20038;-78
2023/07/19 07:48:22;;;;;;;62.83;27.35;;;;;;;23.17;100.00;92467.47;4813165;29;20047;-79
2023/07/19 07:50:57;;;;;;;48.97;25.58;;;;;;;23.74;100.00;92460.03;4809977;29;20039;-79
2023/07/19 07:53:23;;;;;;;40.70;21.27;;;;;;;24.20;100.00;92459.66;4795216;29;20050;-78
2023/07/19 07:55:48;;;;;;;60.35;23.58;;;;;;;24.29;100.00;92445.94;4804233;29;20039;-79
2023/07/19 07:58:16;;;;;;;49.47;21.48;;;;;;;24.50;100.00;92451.47;4801460;29;20126;-78
2023/07/19 08:00:43;;;;;;;50.53;18.35;;;;;;;24.72;100.00;92451.56;4807012;29;20126;-79
2023/07/19 08:03:09;;;;;;;50.83;18.70;;;;;;;24.83;100.00;92441.66;4798491;29;20528;-81
2023/07/19 08:05:35;;;;;;;40.35;14.40;;;;;;;25.00;100.00;92445.56;4806192;29;20061;-78
2023/07/19 08:08:03;;;;;;;37.08;15.48;;;;;;;25.22;100.00;92432.25;4808589;29;20051;-78
2023/07/19 08:10:29;;;;;;;38.72;19.55;;;;;;;25.37;100.00;92430.41;4804051;29;20063;-80
2023/07/19 08:12:55;;;;;;;51.05;20.08;;;;;;;25.14;100.00;92437.56;4807874;29;20039;-78
2023/07/19 08:15:23;;;;;;;36.75;16.20;;;;;;;25.10;100.00;92436.78;4799181;29;20055;-79
2023/07/19 08:17:49;;;;;;;29.55;14.43;;;;;;;25.38;100.00;92427.34;4804123;29;20031;-78
2023/07/19 08:20:15;;;;;;;32.90;14.40;;;;;;;25.53;100.00;92418.19;4804734;29;20046;-79
2023/07/19 08:22:41;;;;;;;40.92;15.20;;;;;;;25.42;100.00;92417.41;4804403;29;20031;-79
2023/07/19 08:25:07;;;;;;;31.77;12.38;;;;;;;25.47;100.00;92427.75;4799833;29;20267;-79
2023/07/19 08:27:34;;;;;;;29.88;11.00;;;;;;;25.66;100.00;92431.19;4792573;29;20043;-79
2023/07/19 08:30:04;;;;;;;23.55;10.88;;;;;;;25.90;100.00;92430.47;4804905;29;20237;-80
2023/07/19 08:32:32;;;;;;;20.15;10.32;;;;;;;26.18;100.00;92428.91;4814068;29;20035;-80
2023/07/19 08:34:58;;;;;;;21.15;11.15;;;;;;;26.17;100.00;92432.75;4801461;29;20150;-79
2023/07/19 08:37:23;;;;;;;25.40;11.25;;;;;;;26.39;100.00;92433.50;4797776;29;20192;-79
2023/07/19 08:39:50;;;;;;;31.58;10.80;;;;;;;26.57;100.00;92438.84;4796266;29;20490;-79
2023/07/19 08:42:15;;;;;;;28.95;11.60;;;;;;;26.69;100.00;92446.47;4802331;29;20035;-79
2023/07/19 08:44:41;;;;;;;26.15;12.95;;;;;;;26.28;100.00;92448.84;4807923;29;20453;-79
2023/07/19 08:47:10;;;;;;;39.95;15.88;;;;;;;26.31;100.00;92442.69;4807418;29;20063;-80
2023/07/19 08:49:37;;;;;;;33.25;15.32;;;;;;;26.22;100.00;92440.41;4808634;29;20129;-80
2023/07/19 08:52:05;;;;;;;43.35;17.55;;;;;;;26.41;100.00;92435.78;4810213;29;20065;-80
2023/07/19 08:54:31;;;;;;;37.92;16.65;;;;;;;26.19;100.00;92433.16;4816854;29;20117;-80
2023/07/19 08:56:57;;;;;;;37.58;19.02;;;;;;;26.32;100.00;92439.66;4810747;29;20062;-80
2023/07/19 08:59:25;;;;;;;40.42;15.90;;;;;;;26.15;100.00;92445.78;4805779;29;20488;-78
2023/07/19 09:01:51;;;;;;;42.97;17.80;;;;;;;26.48;100.00;92451.84;4801935;29;20039;-80
2023/07/19 09:04:16;;;;;;;45.22;19.42;;;;;;;26.41;100.00;92441.91;4813513;29;20035;-81
2023/07/19 09:06:42;;;;;;;40.92;19.98;;;;;;;26.49;100.00;92448.03;4809289;29;20046;-80
2023/07/19 09:09:12;;;;;;;33.65;15.27;;;;;;;26.33;100.00;92451.13;4811398;29;20039;-79
2023/07/19 09:11:43;;;;;;;40.72;18.48;;;;;;;26.56;100.00;92445.38;4810711;29;20082;-79
2023/07/19 09:14:08;;;;;;;45.80;19.37;;;;;;;26.52;100.00;92449.94;4814255;29;20114;-79
2023/07/19 09:16:35;;;;;;;38.08;17.10;;;;;;;26.35;100.00;92454.19;4811410;29;20312;-78
2023/07/19 09:19:01;;;;;;;47.03;17.00;;;;;;;26.38;100.00;92454.19;4809168;29;20042;-79
2023/07/19 09:21:32;;;;;;;43.63;18.58;;;;;;;26.51;100.00;92451.09;4806976;29;20039;-78
2023/07/19 09:23:59;;;;;;;47.88;17.73;;;;;;;26.54;100.00;92461.06;4802659;29;20165;-80
2023/07/19 09:26:25;;;;;;;41.75;19.10;;;;;;;26.61;100.00;92449.56;4806739;29;20031;-80
2023/07/19 09:28:55;;;;;;;41.58;17.48;;;;;;;26.68;100.00;92450.34;4806805;29;20085;-80
2023/07/19 09:31:21;;;;;;;40.53;18.60;;;;;;;26.74;100.00;92448.75;4808142;29;20066;-80
2023/07/19 09:33:46;;;;;;;58.95;20.85;;;;;;;26.70;100.00;92453.38;4810818;29;20059;-79
2023/07/19 09:36:19;;;;;;;39.90;20.65;;;;;;;26.82;100.00;92460.25;4808304;29;20050;-80
2023/07/19 09:38:47;;;;;;;44.90;19.30;;;;;;;26.81;100.00;92456.03;4808426;29;20095;-80
2023/07/19 09:41:13;;;;;;;39.30;19.40;;;;;;;27.03;100.00;92455.97;4806191;29;20039;-79
2023/07/19 09:43:40;;;;;;;58.30;20.20;;;;;;;27.12;100.00;92449.00;4801796;29;20399;-79
2023/07/19 09:46:07;;;;;;;48.60;21.10;;;;;;;27.29;100.00;92447.44;4803539;29;20054;-79
2023/07/19 09:48:33;;;;;;;47.75;20.70;;;;;;;27.33;100.00;92450.84;4810539;29;20151;-79
2023/07/19 09:51:02;;;;;;;58.63;24.02;;;;;;;26.98;100.00;92457.13;4809373;29;20047;-80
2023/07/19 09:53:35;;;;;;;49.65;21.25;;;;;;;26.99;100.00;92458.66;4791161;29;20043;-80
2023/07/19 09:56:01;;;;;;;51.58;20.95;;;;;;;26.97;100.00;92461.72;4813784;29;20050;-80
2023/07/19 09:58:28;;;;;;;47.53;20.13;;;;;;;27.10;100.00;92464.75;4814490;29;20474;-80
2023/07/19 10:00:54;;;;;;;47.42;21.17;;;;;;;27.02;100.00;92463.25;4814909;29;20461;-80
2023/07/19 10:03:20;;;;;;;44.63;18.80;;;;;;;26.99;100.00;92464.03;4814640;29;20062;-80
2023/07/19 10:05:54;;;;;;;45.80;19.20;;;;;;;27.24;100.00;92457.81;4814082;29;20094;-80
2023/07/19 10:08:20;;;;;;;50.83;21.42;;;;;;;27.19;100.00;92458.97;4815727;29;20034;-81
2023/07/19 10:10:46;;;;;;;51.47;21.48;;;;;;;27.28;100.00;92458.56;4812966;29;20041;-79
2023/07/19 10:13:13;;;;;;;48.88;21.73;;;;;;;27.51;100.00;92456.13;4813985;29;20076;-80
2023/07/19 10:15:40;;;;;;;57.88;20.35;;;;;;;27.55;100.00;92451.50;4814878;29;20041;-81
2023/07/19 10:18:12;;;;;;;48.08;20.52;;;;;;;27.31;100.00;92453.19;4814638;29;20046;-80
2023/07/19 10:20:40;;;;;;;46.50;20.05;;;;;;;27.62;100.00;92448.75;4812484;29;20091;-80
2023/07/19 10:23:08;;;;;;;47.92;21.20;;;;;;;27.88;100.00;92449.38;4811620;29;20034;-80
2023/07/19 10:25:44;;;;;;;44.70;20.73;;;;;;;28.08;100.00;92449.63;4813576;29;20046;-80
2023/07/19 10:28:12;;;;;;;46.25;21.73;;;;;;;28.35;100.00;92452.47;4811079;29;20046;-81
2023/07/19 10:30:44;;;;;;;51.13;21.23;;;;;;;28.36;100.00;92451.28;4813629;29;20031;-80
2023/07/19 10:33:23;;;;;;;52.58;22.20;;;;;;;28.44;100.00;92450.06;4811725;29;20060;-81
2023/07/19 10:35:52;;;;;;;51.47;22.55;;;;;;;28.65;100.00;92442.97;4812776;29;20091;-81
2023/07/19 10:38:22;;;;;;;53.90;21.73;;;;;;;28.65;100.00;92445.66;4812415;29;20030;-81
2023/07/19 10:41:07;;;;;;;56.35;25.02;;;;;;;28.55;100.00;92443.81;4810643;29;20035;-81
2023/07/19 10:43:34;;;;;;;46.67;23.85;;;;;;;28.59;100.00;92433.78;4810224;29;20043;-80
2023/07/19 10:46:03;;;;;;;55.17;22.45;;;;;;;28.73;100.00;92439.03;4802734;29;20092;-81
2023/07/19 10:48:32;;;;;;;52.35;24.33;;;;;;;28.60;100.00;92440.72;4811274;29;20057;-80
2023/07/19 10:50:59;;;;;;;52.33;23.17;;;;;;;28.70;100.00;92437.13;4813937;29;20050;-81
2023/07/19 10:53:26;;;;;;;50.03;20.80;;;;;;;28.63;100.00;92440.66;4809949;29;20034;-80
2023/07/19 10:55:52;;;;;;;48.85;22.10;;;;;;;28.22;100.00;92443.34;4813497;29;20278;-80
2023/07/19 10:58:18;;;;;;;48.70;22.80;;;;;;;28.24;100.00;92433.72;4811257;29;20045;-79
2023/07/19 11:00:45;;;;;;;57.90;22.63;;;;;;;28.38;100.00;92450.91;4810362;29;20034;-80
2023/07/19 11:03:14;;;;;;;49.85;22.13;;;;;;;28.45;100.00;92440.06;4809792;29;20050;-80